Thurston, Nebraska
Current Conditions -  °F | °C
As of 1:35 PM on Monday 22 Dec 2014 (Local Time) from KLCG Reporting Station
Drizzle Drizzle  
Wind Chill: 35°   Ceiling: 700
Heat Index: 41°   Visibility: 3mi
Dew Point: 40°   Wind: 10mph
Humidity: 94%   Direction: 310°NW
Pressure: 29.41"   Gusts: NA
Location:  42.18°N, 96.7°W
Report Text: KLCG 221935Z AUTO 31009KT 3SM DZ BKN007 OVC014 05/04 A2941 RMK AO2 P0002 T00510042
Loading
Personal Weather Stations






























Interactive Weather Map New forecast layout! Learn more

10-Day Weather Forecast

Advertisements
Track Severe Weather on mobile